createdAt,value
2022-09-04T00:00:37.943Z,79.13
2022-09-04T00:01:40.112Z,79.73
2022-09-04T00:02:38.733Z,76.58
2022-09-04T00:03:38.807Z,74.48
2022-09-04T00:04:38.817Z,73.64
2022-09-04T00:05:38.533Z,72.97
2022-09-04T00:06:37.854Z,72.47
2022-09-04T00:07:39.382Z,73.47
2022-09-04T00:08:38.402Z,76.57
2022-09-04T00:09:38.453Z,77.21
2022-09-04T00:10:38.695Z,78.45
2022-09-04T00:11:38.513Z,78.49
2022-09-04T00:12:38.623Z,79.09
2022-09-04T00:13:38.583Z,80.24
2022-09-04T00:14:38.625Z,80.74
2022-09-04T00:15:37.783Z,80.88
2022-09-04T00:16:38.817Z,80.98
2022-09-04T00:17:38.463Z,81.78
2022-09-04T00:18:38.563Z,82.92
2022-09-04T00:19:38.563Z,83.76
2022-09-04T00:20:38.364Z,83.97
2022-09-04T00:21:38.463Z,83.76
2022-09-04T00:22:38.362Z,83.06
2022-09-04T00:23:38.444Z,82.86
2022-09-04T00:24:38.352Z,83.26
2022-09-04T00:25:38.656Z,83.93
2022-09-04T00:26:37.652Z,83.83
2022-09-04T00:27:38.472Z,84.43
2022-09-04T00:28:37.633Z,82.72
2022-09-04T00:29:38.534Z,84.27
2022-09-04T00:30:38.355Z,84.91
2022-09-04T00:31:38.413Z,85.92
2022-09-04T00:32:38.323Z,87.37
2022-09-04T00:33:38.382Z,87.98
2022-09-04T00:34:37.573Z,89.43
2022-09-04T00:35:38.162Z,89.53
2022-09-04T00:36:38.373Z,89.32
2022-09-04T00:37:37.604Z,90.44
2022-09-04T00:38:38.884Z,90.37
2022-09-04T00:39:38.269Z,90.88
2022-09-04T00:40:38.356Z,90.28
2022-09-04T00:41:38.152Z,90.28
2022-09-04T00:42:38.313Z,90.52
2022-09-04T00:43:38.232Z,91.73
2022-09-04T00:44:37.483Z,91.42
2022-09-04T00:45:38.200Z,91.83
2022-09-04T00:46:38.344Z,91.33
2022-09-04T00:47:37.432Z,91.33
2022-09-04T00:48:38.232Z,91.33
2022-09-04T00:49:37.473Z,91.63
2022-09-04T00:50:38.002Z,91.93
2022-09-04T00:51:38.282Z,91.73
2022-09-04T00:52:37.393Z,91.83
2022-09-04T00:53:38.193Z,92.03
2022-09-04T00:54:37.964Z,91.63
2022-09-04T00:55:38.255Z,91.13
2022-09-04T00:56:38.013Z,91.83
2022-09-04T00:57:38.114Z,91.83
2022-09-04T00:58:37.993Z,91.22
2022-09-04T00:59:38.123Z,91.28
2022-09-04T01:00:38.124Z,90.07
2022-09-04T01:01:38.749Z,90.92
2022-09-04T01:02:38.014Z,91.53
2022-09-04T01:03:38.053Z,91.22
2022-09-04T01:04:38.043Z,90.32
2022-09-04T01:05:37.853Z,91.53
2022-09-04T01:06:37.984Z,90.42
2022-09-04T01:07:37.893Z,91.02
2022-09-04T01:08:38.003Z,90.82
2022-09-04T01:09:37.882Z,90.32
2022-09-04T01:10:38.022Z,88.66
2022-09-04T01:11:37.899Z,88.66
2022-09-04T01:12:37.974Z,89.57
2022-09-04T01:13:37.994Z,89.23
2022-09-04T01:14:37.943Z,88.62
2022-09-04T01:15:37.824Z,88.42
2022-09-04T01:16:37.341Z,87.92
2022-09-04T01:17:37.845Z,88.62
2022-09-04T01:18:37.934Z,88.32
2022-09-04T01:19:37.933Z,87.57
2022-09-04T01:20:37.693Z,87.27
2022-09-04T01:21:37.874Z,87.67
2022-09-04T01:22:37.054Z,87.62
2022-09-04T01:23:37.986Z,87.62
2022-09-04T01:24:37.663Z,87.71
2022-09-04T01:25:37.883Z,87.51
2022-09-04T01:26:37.823Z,87.62
2022-09-04T01:27:37.783Z,87.92
2022-09-04T01:28:37.754Z,89.03
2022-09-04T01:29:37.803Z,88.12
2022-09-04T01:30:37.883Z,88.02
2022-09-04T01:31:37.920Z,87.82
2022-09-04T01:32:37.693Z,89.03
2022-09-04T01:33:37.842Z,89.03
2022-09-04T01:34:37.663Z,88.92
2022-09-04T01:35:37.583Z,89.03
2022-09-04T01:36:37.714Z,89.06
2022-09-04T01:37:37.605Z,88.56
2022-09-04T01:38:37.724Z,89.26
2022-09-04T01:39:37.606Z,89.67
2022-09-04T01:40:37.759Z,88.86
2022-09-04T01:41:38.826Z,89.77
2022-09-04T01:42:37.693Z,90.07
2022-09-04T01:43:37.608Z,90.58
2022-09-04T01:44:37.675Z,90.37
2022-09-04T01:45:37.601Z,90.28
2022-09-04T01:46:37.666Z,90.07
2022-09-04T01:47:37.533Z,89.67
2022-09-04T01:48:36.784Z,90.48
2022-09-04T01:49:37.593Z,90.78
2022-09-04T01:50:36.753Z,91.08
2022-09-04T01:51:38.735Z,90.52
2022-09-04T01:52:37.701Z,91.18
2022-09-04T01:53:36.734Z,90.28
2022-09-04T01:54:37.323Z,90.01
2022-09-04T01:55:36.764Z,91.83
2022-09-04T01:56:37.353Z,91.33
2022-09-04T01:57:36.685Z,92.23
2022-09-04T01:58:37.924Z,91.53
2022-09-04T01:59:36.834Z,90.92
2022-09-04T02:00:37.956Z,92.43
2022-09-04T02:01:38.864Z,93.44
2022-09-04T02:02:37.872Z,93.85
2022-09-04T02:03:36.622Z,93.65
2022-09-04T02:04:37.933Z,92.63
2022-09-04T02:05:37.307Z,93.44
2022-09-04T02:06:36.583Z,93.85
2022-09-04T02:07:37.864Z,93.65
2022-09-04T02:08:36.703Z,92.74
2022-09-04T02:09:36.543Z,92.23
2022-09-04T02:10:38.004Z,92.90
2022-09-04T02:11:36.934Z,92.90
2022-09-04T02:12:36.574Z,92.29
2022-09-04T02:13:37.283Z,91.89
2022-09-04T02:14:36.514Z,90.92
2022-09-04T02:15:37.897Z,91.73
2022-09-04T02:16:36.859Z,91.13
2022-09-04T02:17:36.485Z,90.72
2022-09-04T02:18:38.144Z,91.42
2022-09-04T02:19:36.862Z,92.13
2022-09-04T02:20:36.423Z,92.03
2022-09-04T02:21:37.875Z,92.74
2022-09-04T02:22:36.772Z,92.63
2022-09-04T02:23:36.412Z,91.57
2022-09-04T02:24:37.973Z,91.47
2022-09-04T02:25:37.023Z,92.58
2022-09-04T02:26:36.363Z,93.53
2022-09-04T02:27:37.213Z,93.13
2022-09-04T02:28:36.345Z,93.13
2022-09-04T02:29:37.864Z,94.04
2022-09-04T02:30:37.053Z,94.64
2022-09-04T02:31:36.365Z,94.44
2022-09-04T02:32:38.134Z,94.09
2022-09-04T02:33:36.847Z,93.89
2022-09-04T02:34:37.124Z,93.59
2022-09-04T02:35:36.946Z,93.79
2022-09-04T02:36:36.252Z,93.08
2022-09-04T02:37:37.865Z,93.49
2022-09-04T02:38:36.776Z,92.58
2022-09-04T02:39:36.262Z,91.97
2022-09-04T02:40:38.165Z,91.87
2022-09-04T02:41:37.053Z,92.88
2022-09-04T02:42:36.204Z,91.47
2022-09-04T02:43:37.974Z,91.11
2022-09-04T02:44:36.822Z,92.72
2022-09-04T02:45:36.175Z,93.13
2022-09-04T02:46:40.018Z,93.48
2022-09-04T02:47:36.214Z,93.88
2022-09-04T02:48:37.436Z,93.98
2022-09-04T02:49:36.372Z,95.09
2022-09-04T02:50:36.686Z,94.73
2022-09-04T02:51:36.945Z,95.23
2022-09-04T02:52:36.146Z,95.54
2022-09-04T02:53:36.903Z,94.83
2022-09-04T02:54:36.106Z,95.70
2022-09-04T02:55:36.905Z,95.09
2022-09-04T02:56:36.734Z,96.20
2022-09-04T02:57:36.930Z,96.30
2022-09-04T02:58:36.035Z,96.00
2022-09-04T02:59:36.863Z,95.85
2022-09-04T03:00:36.920Z,95.75
2022-09-04T03:01:37.013Z,95.65
2022-09-04T03:02:36.734Z,94.94
2022-09-04T03:03:36.875Z,94.04
2022-09-04T03:04:35.963Z,94.84
2022-09-04T03:05:36.655Z,95.95
2022-09-04T03:06:35.955Z,95.45
2022-09-04T03:07:37.444Z,95.75
2022-09-04T03:08:36.441Z,95.95
2022-09-04T03:09:36.543Z,95.85
2022-09-04T03:10:35.914Z,95.65
2022-09-04T03:11:38.154Z,95.35
2022-09-04T03:12:37.013Z,95.55
2022-09-04T03:13:35.904Z,96.05
2022-09-04T03:14:36.734Z,95.35
2022-09-04T03:15:36.776Z,95.45
2022-09-04T03:16:36.926Z,95.85
2022-09-04T03:17:35.834Z,95.65
2022-09-04T03:18:37.665Z,94.70
2022-09-04T03:19:35.803Z,94.80
2022-09-04T03:20:36.443Z,94.49
2022-09-04T03:21:36.605Z,94.09
2022-09-04T03:22:35.784Z,93.24
2022-09-04T03:23:36.574Z,92.38
2022-09-04T03:24:35.805Z,92.58
2022-09-04T03:25:37.573Z,92.78
2022-09-04T03:26:36.565Z,93.18
2022-09-04T03:27:35.745Z,93.29
2022-09-04T03:28:36.456Z,93.18
2022-09-04T03:29:36.544Z,92.78
2022-09-04T03:30:35.687Z,92.78
2022-09-04T03:31:36.999Z,92.54
2022-09-04T03:32:37.473Z,93.24
2022-09-04T03:33:35.664Z,92.94
2022-09-04T03:34:36.665Z,93.04
2022-09-04T03:35:36.294Z,92.43
2022-09-04T03:36:35.623Z,91.63
2022-09-04T03:37:36.925Z,91.77
2022-09-04T03:38:35.955Z,92.63
2022-09-04T03:39:36.343Z,90.97
2022-09-04T03:40:35.584Z,91.57
2022-09-04T03:41:36.926Z,91.57
2022-09-04T03:42:36.518Z,91.47
2022-09-04T03:43:35.544Z,91.67
2022-09-04T03:44:37.126Z,91.57
2022-09-04T03:45:36.353Z,91.67
2022-09-04T03:46:36.394Z,92.58
2022-09-04T03:47:36.224Z,92.88
2022-09-04T03:48:35.494Z,93.08
2022-09-04T03:49:36.904Z,92.38
2022-09-04T03:50:35.794Z,92.07
2022-09-04T03:51:36.236Z,91.77
2022-09-04T03:52:35.453Z,92.78
2022-09-04T03:53:36.293Z,92.47
2022-09-04T03:54:36.214Z,93.29
2022-09-04T03:55:36.316Z,92.68
2022-09-04T03:56:35.424Z,92.88
2022-09-04T03:57:36.374Z,93.59
2022-09-04T03:58:35.385Z,93.38
2022-09-04T03:59:38.073Z,92.93
2022-09-04T04:00:36.139Z,93.38
2022-09-04T04:01:36.226Z,93.29
2022-09-04T04:02:36.216Z,93.08
2022-09-04T04:03:36.149Z,92.07
2022-09-04T04:04:36.114Z,92.78
2022-09-04T04:05:35.884Z,92.58
2022-09-04T04:06:35.346Z,92.58
2022-09-04T04:07:35.964Z,92.54
2022-09-04T04:08:36.074Z,92.54
2022-09-04T04:09:35.266Z,91.87
2022-09-04T04:10:36.064Z,92.38
2022-09-04T04:11:36.158Z,92.27
2022-09-04T04:12:36.034Z,93.53
2022-09-04T04:13:35.225Z,92.93
2022-09-04T04:14:37.537Z,93.13
2022-09-04T04:15:36.514Z,92.52
2022-09-04T04:16:36.093Z,92.82
2022-09-04T04:17:35.954Z,91.91
2022-09-04T04:18:36.014Z,92.62
2022-09-04T04:19:35.204Z,93.13
2022-09-04T04:20:35.734Z,92.82
2022-09-04T04:21:36.014Z,92.88
2022-09-04T04:22:35.794Z,92.42
2022-09-04T04:23:35.133Z,93.23
2022-09-04T04:24:36.824Z,92.72
2022-09-04T04:25:35.114Z,93.17
2022-09-04T04:26:35.764Z,94.08
2022-09-04T04:27:35.979Z,94.28
2022-09-04T04:28:35.053Z,94.38
2022-09-04T04:29:35.926Z,94.28
2022-09-04T04:30:35.063Z,94.24
2022-09-04T04:31:35.900Z,94.44
2022-09-04T04:32:35.074Z,93.93
2022-09-04T04:33:35.854Z,92.82
2022-09-04T04:34:35.824Z,93.13
2022-09-04T04:35:35.774Z,93.08
2022-09-04T04:36:34.973Z,92.68
2022-09-04T04:37:35.653Z,92.47
2022-09-04T04:38:35.906Z,92.47
2022-09-04T04:39:35.599Z,92.68
2022-09-04T04:40:34.934Z,92.47
2022-09-04T04:41:35.664Z,92.47
2022-09-04T04:42:34.965Z,92.88
2022-09-04T04:43:36.303Z,93.43
2022-09-04T04:44:35.734Z,92.72
2022-09-04T04:45:35.626Z,92.72
2022-09-04T04:46:35.731Z,92.38
2022-09-04T04:47:35.752Z,92.88
2022-09-04T04:48:34.855Z,92.58
2022-09-04T04:49:36.564Z,93.18
2022-09-04T04:50:34.833Z,93.79
2022-09-04T04:51:35.664Z,93.49
2022-09-04T04:52:35.443Z,93.38
2022-09-04T04:53:35.693Z,93.59
2022-09-04T04:54:34.796Z,93.49
2022-09-04T04:55:36.986Z,92.88
2022-09-04T04:56:35.426Z,92.78
2022-09-04T04:57:35.555Z,92.47
2022-09-04T04:58:34.794Z,91.87
2022-09-04T04:59:36.806Z,92.38
2022-09-04T05:00:35.785Z,92.23
2022-09-04T05:01:34.879Z,92.47
2022-09-04T05:02:36.497Z,91.73
2022-09-04T05:03:35.374Z,92.03
2022-09-04T05:04:35.763Z,92.83
2022-09-04T05:05:34.684Z,92.13
2022-09-04T05:06:35.454Z,92.27
2022-09-04T05:07:34.710Z,92.58
2022-09-04T05:08:35.544Z,92.68
2022-09-04T05:09:34.624Z,92.88
2022-09-04T05:10:35.994Z,92.78
2022-09-04T05:11:35.175Z,91.97
2022-09-04T05:12:34.604Z,91.47
2022-09-04T05:13:35.994Z,91.82
2022-09-04T05:14:34.783Z,92.27
2022-09-04T05:15:43.784Z,92.47
2022-09-04T05:16:36.260Z,92.38
2022-09-04T05:17:34.553Z,92.27
2022-09-04T05:18:35.543Z,90.77
2022-09-04T05:19:34.535Z,91.77
2022-09-04T05:20:35.983Z,92.18
2022-09-04T05:21:34.740Z,91.87
2022-09-04T05:22:34.626Z,92.12
2022-09-04T05:23:35.953Z,92.72
2022-09-04T05:24:34.834Z,92.38
2022-09-04T05:25:34.463Z,93.08
2022-09-04T05:26:36.036Z,92.98
2022-09-04T05:27:35.726Z,92.68
2022-09-04T05:28:34.433Z,92.18
2022-09-04T05:29:35.983Z,92.27
2022-09-04T05:30:34.945Z,92.47
2022-09-04T05:31:34.423Z,93.08
2022-09-04T05:32:35.143Z,91.97
2022-09-04T05:33:35.203Z,91.97
2022-09-04T05:34:34.404Z,91.17
2022-09-04T05:35:35.276Z,92.27
2022-09-04T05:36:35.135Z,91.47
2022-09-04T05:37:34.993Z,91.97
2022-09-04T05:38:35.123Z,91.93
2022-09-04T05:39:35.172Z,91.97
2022-09-04T05:40:34.304Z,92.58
2022-09-04T05:41:35.872Z,93.73
2022-09-04T05:42:34.717Z,93.13
2022-09-04T05:43:34.954Z,93.23
2022-09-04T05:44:35.182Z,93.33
2022-09-04T05:45:34.964Z,92.72
2022-09-04T05:46:35.110Z,93.23
2022-09-04T05:47:34.994Z,93.18
2022-09-04T05:48:34.204Z,93.69
2022-09-04T05:49:36.104Z,93.08
2022-09-04T05:50:34.913Z,93.24
2022-09-04T05:51:34.906Z,92.43
2022-09-04T05:52:34.163Z,91.33
2022-09-04T05:53:35.027Z,91.58
2022-09-04T05:54:34.804Z,92.09
2022-09-04T05:55:35.117Z,91.08
2022-09-04T05:56:34.113Z,91.18
2022-09-04T05:57:34.974Z,90.37
2022-09-04T05:58:34.794Z,88.12
2022-09-04T05:59:34.104Z,89.83
2022-09-04T06:00:34.887Z,89.32
2022-09-04T06:01:34.119Z,88.92
2022-09-04T06:02:34.862Z,89.32
2022-09-04T06:03:34.846Z,91.49
2022-09-04T06:04:34.855Z,91.58
2022-09-04T06:05:34.754Z,90.17
2022-09-04T06:06:34.784Z,89.73
2022-09-04T06:07:34.694Z,90.23
2022-09-04T06:08:34.824Z,88.82
2022-09-04T06:09:34.624Z,89.23
2022-09-04T06:10:34.953Z,91.34
2022-09-04T06:11:34.693Z,90.73
2022-09-04T06:12:34.822Z,90.03
2022-09-04T06:13:34.643Z,90.53
2022-09-04T06:14:34.755Z,91.19
2022-09-04T06:15:34.703Z,90.09
2022-09-04T06:16:34.752Z,89.69
2022-09-04T06:17:33.912Z,91.19
2022-09-04T06:18:34.917Z,90.89
2022-09-04T06:19:34.685Z,92.30
2022-09-04T06:20:33.863Z,92.00
2022-09-04T06:21:34.694Z,90.39
2022-09-04T06:22:33.833Z,90.19
2022-09-04T06:23:35.804Z,89.69
2022-09-04T06:24:34.464Z,91.24
2022-09-04T06:25:34.595Z,91.70
2022-09-04T06:26:34.554Z,91.50
2022-09-04T06:27:35.454Z,91.19
2022-09-04T06:28:34.533Z,90.49
2022-09-04T06:29:34.573Z,90.49
2022-09-04T06:30:34.573Z,92.06
2022-09-04T06:31:34.638Z,91.96
2022-09-04T06:32:34.124Z,90.15
2022-09-04T06:33:34.773Z,90.55
2022-09-04T06:34:34.494Z,87.73
2022-09-04T06:35:34.243Z,88.23
2022-09-04T06:36:34.504Z,86.99
2022-09-04T06:37:33.753Z,87.24
2022-09-04T06:38:35.882Z,86.74
2022-09-04T06:39:34.741Z,88.75
2022-09-04T06:40:34.495Z,88.15
2022-09-04T06:41:33.643Z,87.65
2022-09-04T06:42:34.553Z,87.81
2022-09-04T06:43:34.333Z,87.71
2022-09-04T06:44:35.423Z,85.80
2022-09-04T06:45:34.323Z,85.39
2022-09-04T06:46:34.499Z,84.59
2022-09-04T06:47:33.614Z,84.59
2022-09-04T06:48:34.594Z,82.54
2022-09-04T06:49:34.364Z,85.36
2022-09-04T06:50:33.553Z,83.65
2022-09-04T06:51:34.333Z,82.24
2022-09-04T06:52:35.046Z,83.25
2022-09-04T06:53:33.506Z,83.65
2022-09-04T06:54:34.877Z,85.92
2022-09-04T06:55:35.757Z,86.52
2022-09-04T06:56:34.180Z,83.51
2022-09-04T06:57:34.329Z,83.31
2022-09-04T06:58:33.459Z,84.31
2022-09-04T06:59:35.037Z,86.86
2022-09-04T07:00:34.148Z,85.16
2022-09-04T07:01:34.353Z,85.75
2022-09-04T07:02:34.329Z,85.30
2022-09-04T07:03:33.457Z,85.19
2022-09-04T07:04:34.997Z,86.40
2022-09-04T07:05:34.098Z,88.91
2022-09-04T07:06:33.398Z,86.70
2022-09-04T07:07:35.027Z,86.00
2022-09-04T07:08:35.028Z,86.60
2022-09-04T07:09:34.037Z,87.30
2022-09-04T07:10:33.357Z,86.50
2022-09-04T07:11:33.987Z,87.30
2022-09-04T07:12:33.308Z,86.60
2022-09-04T07:13:35.238Z,86.00
2022-09-04T07:14:34.496Z,86.20
2022-09-04T07:15:33.408Z,86.40
2022-09-04T07:16:35.309Z,87.10
2022-09-04T07:17:34.386Z,85.70
2022-09-04T07:18:34.159Z,87.01
2022-09-04T07:19:33.247Z,87.30
2022-09-04T07:20:34.897Z,85.70
2022-09-04T07:21:34.027Z,84.85
2022-09-04T07:22:33.208Z,83.45
2022-09-04T07:23:34.997Z,82.67
2022-09-04T07:24:33.257Z,79.22
2022-09-04T07:25:34.599Z,78.81
2022-09-04T07:26:33.856Z,79.32
2022-09-04T07:27:33.168Z,81.42
2022-09-04T07:28:34.567Z,82.57
2022-09-04T07:29:33.809Z,83.07
2022-09-04T07:30:33.158Z,82.46
2022-09-04T07:31:34.602Z,82.40
2022-09-04T07:32:33.891Z,81.80
2022-09-04T07:33:33.098Z,80.46
2022-09-04T07:34:34.966Z,82.06
2022-09-04T07:35:33.986Z,81.16
2022-09-04T07:36:33.108Z,80.92
2022-09-04T07:37:33.716Z,78.98
2022-09-04T07:38:33.038Z,80.47
2022-09-04T07:39:33.728Z,79.67
2022-09-04T07:40:33.016Z,78.19
2022-09-04T07:41:34.486Z,77.25
2022-09-04T07:42:33.946Z,76.22
2022-09-04T07:43:32.977Z,76.32
2022-09-04T07:44:34.506Z,73.82
2022-09-04T07:45:33.578Z,75.22
2022-09-04T07:46:33.866Z,77.39
2022-09-04T07:47:32.986Z,78.33
2022-09-04T07:48:33.916Z,75.93
2022-09-04T07:49:32.928Z,75.63
2022-09-04T07:50:34.537Z,77.76
2022-09-04T07:51:33.808Z,78.36
2022-09-04T07:52:33.547Z,78.56
2022-09-04T07:53:32.887Z,77.10
2022-09-04T07:54:34.679Z,76.67
2022-09-04T07:55:33.657Z,81.07
2022-09-04T07:56:32.849Z,78.56
2022-09-04T07:57:34.967Z,78.80
2022-09-04T07:58:33.937Z,79.34
2022-09-04T07:59:32.807Z,79.58
2022-09-04T08:00:35.006Z,79.85
2022-09-04T08:01:38.203Z,76.94
2022-09-04T08:02:33.838Z,78.80
2022-09-04T08:03:32.770Z,77.91
2022-09-04T08:04:34.047Z,78.44
2022-09-04T08:05:33.239Z,80.35
2022-09-04T08:06:32.738Z,80.94
2022-09-04T08:07:33.488Z,79.58
2022-09-04T08:08:32.738Z,82.29
2022-09-04T08:09:34.087Z,80.48
2022-09-04T08:10:33.207Z,80.58
2022-09-04T08:11:32.677Z,79.88
2022-09-04T08:12:34.017Z,78.58
2022-09-04T08:13:33.148Z,79.78
2022-09-04T08:14:32.972Z,81.93
2022-09-04T08:15:35.465Z,81.62
2022-09-04T08:16:33.670Z,83.33
2022-09-04T08:17:33.339Z,80.18
2022-09-04T08:18:32.667Z,82.29
2022-09-04T08:19:34.108Z,79.68
2022-09-04T08:20:33.286Z,80.08
2022-09-04T08:21:32.586Z,82.29
2022-09-04T08:22:34.137Z,83.69
2022-09-04T08:23:33.076Z,80.98
2022-09-04T08:24:32.600Z,82.53
2022-09-04T08:25:34.477Z,81.42
2022-09-04T08:26:33.207Z,82.23
2022-09-04T08:27:32.517Z,81.62
2022-09-04T08:28:33.239Z,81.38
2022-09-04T08:29:32.548Z,81.79
2022-09-04T08:30:33.289Z,82.29
2022-09-04T08:31:32.488Z,80.38
2022-09-04T08:32:38.252Z,80.04
2022-09-04T08:33:32.787Z,81.15
2022-09-04T08:34:32.436Z,78.64
2022-09-04T08:35:34.090Z,77.24
2022-09-04T08:36:33.311Z,76.30
2022-09-04T08:37:32.429Z,78.91
2022-09-04T08:38:34.051Z,78.00
2022-09-04T08:39:32.741Z,79.00
2022-09-04T08:40:32.378Z,80.74
2022-09-04T08:41:33.260Z,80.24
2022-09-04T08:42:32.346Z,82.29
2022-09-04T08:43:34.119Z,80.18
2022-09-04T08:44:33.198Z,79.78
2022-09-04T08:45:32.327Z,81.18
2022-09-04T08:46:33.261Z,82.59
2022-09-04T08:47:32.842Z,82.18
2022-09-04T08:48:33.705Z,82.03
2022-09-04T08:49:33.058Z,79.42
2022-09-04T08:50:32.266Z,79.72
2022-09-04T08:51:33.528Z,82.32
2022-09-04T08:52:32.270Z,81.42
2022-09-04T08:53:32.707Z,81.62
2022-09-04T08:54:33.608Z,79.92
2022-09-04T08:55:32.756Z,79.22
2022-09-04T08:56:32.229Z,79.78
2022-09-04T08:57:33.528Z,77.98
2022-09-04T08:58:34.258Z,77.98
2022-09-04T08:59:32.236Z,81.59
2022-09-04T09:00:33.722Z,79.48
2022-09-04T09:01:32.777Z,79.82
2022-09-04T09:02:32.971Z,80.68
2022-09-04T09:03:32.156Z,81.38
2022-09-04T09:04:33.566Z,81.29
2022-09-04T09:05:33.057Z,80.38
2022-09-04T09:06:32.386Z,80.88
2022-09-04T09:07:33.940Z,81.48
2022-09-04T09:08:32.258Z,80.48
2022-09-04T09:09:33.856Z,79.68
2022-09-04T09:10:32.986Z,78.98
2022-09-04T09:11:32.100Z,78.88
2022-09-04T09:12:41.478Z,79.38
2022-09-04T09:13:33.727Z,78.61
2022-09-04T09:14:32.339Z,78.81
2022-09-04T09:15:33.887Z,79.22
2022-09-04T09:16:33.755Z,78.88
2022-09-04T09:17:34.467Z,79.38
2022-09-04T09:18:32.917Z,77.67
2022-09-04T09:19:31.978Z,78.58
2022-09-04T09:20:34.027Z,77.54
2022-09-04T09:21:32.995Z,77.64
2022-09-04T09:22:31.967Z,78.84
2022-09-04T09:23:33.977Z,78.04
2022-09-04T09:24:32.330Z,80.24
2022-09-04T09:25:32.228Z,80.44
2022-09-04T09:26:35.391Z,78.04
2022-09-04T09:27:33.129Z,77.40
2022-09-04T09:28:33.790Z,80.11
2022-09-04T09:29:32.151Z,79.21
2022-09-04T09:30:34.015Z,80.41
2022-09-04T09:31:33.028Z,78.60
2022-09-04T09:32:33.310Z,79.86
2022-09-04T09:33:32.090Z,78.77
2022-09-04T09:34:33.190Z,77.86
2022-09-04T09:35:34.589Z,76.37
2022-09-04T09:36:33.549Z,74.16
2022-09-04T09:37:34.589Z,76.43
2022-09-04T09:38:33.790Z,73.63
2022-09-04T09:39:33.474Z,73.22
2022-09-04T09:40:33.417Z,76.29
2022-09-04T09:41:32.056Z,75.19
2022-09-04T09:42:33.986Z,75.83
2022-09-04T09:43:33.186Z,72.72
2022-09-04T09:44:32.326Z,73.16
2022-09-04T09:45:32.536Z,74.76
2022-09-04T09:46:31.686Z,76.46
2022-09-04T09:47:32.627Z,75.16
2022-09-04T09:48:31.686Z,76.76
2022-09-04T09:49:31.695Z,75.37
2022-09-04T09:50:33.409Z,74.66
2022-09-04T09:51:33.176Z,74.63
2022-09-04T09:52:31.626Z,75.83
2022-09-04T09:53:32.497Z,76.23
2022-09-04T09:54:32.296Z,74.03
2022-09-04T09:55:32.447Z,77.53
2022-09-04T09:56:31.567Z,76.23
2022-09-04T09:57:33.867Z,76.03
2022-09-04T09:58:32.506Z,77.33
2022-09-04T09:59:31.668Z,75.33
2022-09-04T10:00:31.745Z,76.73
2022-09-04T10:01:33.629Z,75.93
2022-09-04T10:02:32.368Z,75.13
2022-09-04T10:03:31.557Z,76.19
2022-09-04T10:04:34.192Z,75.69
2022-09-04T10:05:32.547Z,72.99
2022-09-04T10:06:32.406Z,73.19
2022-09-04T10:07:31.466Z,72.36
2022-09-04T10:08:36.123Z,71.66
2022-09-04T10:09:31.476Z,72.96
2022-09-04T10:10:31.449Z,73.06
2022-09-04T10:11:32.476Z,72.02
2022-09-04T10:12:32.395Z,72.32
2022-09-04T10:13:31.886Z,73.12
2022-09-04T10:14:33.326Z,71.72
2022-09-04T10:15:32.338Z,69.93
2022-09-04T10:16:32.288Z,70.72
2022-09-04T10:17:32.518Z,70.32
2022-09-04T10:18:31.331Z,70.79
2022-09-04T10:19:32.922Z,70.29
2022-09-04T10:20:31.986Z,68.99
2022-09-04T10:21:32.087Z,68.70
2022-09-04T10:22:31.295Z,69.20
2022-09-04T10:23:32.756Z,69.29
2022-09-04T10:24:31.287Z,69.69
2022-09-04T10:25:32.597Z,71.09
2022-09-04T10:26:33.156Z,70.53
2022-09-04T10:27:32.686Z,70.83
2022-09-04T10:28:31.217Z,71.19
2022-09-04T10:29:32.741Z,70.56
2022-09-04T10:30:31.964Z,70.95
2022-09-04T10:31:32.057Z,69.26
2022-09-04T10:32:31.517Z,68.33
2022-09-04T10:33:31.206Z,69.02
2022-09-04T10:34:31.917Z,68.90
2022-09-04T10:35:32.335Z,67.86
2022-09-04T10:36:31.417Z,66.67
2022-09-04T10:37:33.356Z,66.47
2022-09-04T10:38:32.356Z,66.24
2022-09-04T10:39:31.849Z,66.24
2022-09-04T10:40:31.116Z,65.48
2022-09-04T10:41:31.766Z,65.18
2022-09-04T10:42:31.097Z,66.47
2022-09-04T10:43:31.097Z,67.90
2022-09-04T10:44:32.005Z,66.08
2022-09-04T10:45:32.014Z,64.91
2022-09-04T10:46:32.109Z,66.71
2022-09-04T10:47:32.129Z,65.31
2022-09-04T10:48:31.015Z,67.33
2022-09-04T10:49:31.007Z,65.24
2022-09-04T10:50:31.686Z,66.20
2022-09-04T10:51:32.317Z,64.04
2022-09-04T10:52:30.965Z,64.97
2022-09-04T10:53:32.987Z,65.77
2022-09-04T10:54:31.688Z,65.80
2022-09-04T10:55:32.576Z,67.50
2022-09-04T10:56:30.946Z,67.60
2022-09-04T10:57:32.576Z,65.27
2022-09-04T10:58:31.756Z,65.84
2022-09-04T10:59:32.826Z,65.24
2022-09-04T11:00:30.926Z,65.51
2022-09-04T11:01:32.308Z,65.24
2022-09-04T11:02:31.592Z,66.14
2022-09-04T11:03:32.430Z,67.43
2022-09-04T11:04:32.796Z,64.45
2022-09-04T11:05:32.676Z,64.31
2022-09-04T11:06:31.840Z,65.91
2022-09-04T11:07:32.316Z,63.92
2022-09-04T11:08:31.786Z,64.12
2022-09-04T11:09:32.306Z,64.58
2022-09-04T11:10:31.567Z,63.59
2022-09-04T11:11:32.747Z,64.28
2022-09-04T11:12:31.687Z,62.59
2022-09-04T11:13:32.267Z,63.32
2022-09-04T11:14:30.735Z,64.01
2022-09-04T11:15:32.146Z,63.92
2022-09-04T11:16:31.368Z,65.24
2022-09-04T11:17:30.756Z,66.80
2022-09-04T11:18:32.006Z,61.13
2022-09-04T11:19:32.135Z,62.82
2022-09-04T11:20:31.531Z,61.66
2022-09-04T11:21:30.676Z,64.04
2022-09-04T11:22:31.296Z,62.82
2022-09-04T11:23:30.717Z,61.83
2022-09-04T11:24:30.635Z,62.15
2022-09-04T11:25:30.947Z,63.55
2022-09-04T11:26:30.616Z,61.36
2022-09-04T11:27:31.467Z,62.85
2022-09-04T11:28:30.607Z,63.05
2022-09-04T11:29:32.095Z,64.84
2022-09-04T11:30:31.296Z,63.65
2022-09-04T11:31:31.571Z,63.85
2022-09-04T11:32:31.287Z,63.05
2022-09-04T11:33:31.316Z,63.65
2022-09-04T11:34:30.546Z,61.79
2022-09-04T11:35:32.627Z,62.88
2022-09-04T11:36:31.747Z,62.48
2022-09-04T11:37:31.105Z,63.65
2022-09-04T11:38:30.510Z,63.15
2022-09-04T11:39:32.367Z,63.55
2022-09-04T11:40:31.246Z,63.02
2022-09-04T11:41:31.156Z,62.23
2022-09-04T11:42:31.356Z,62.02
2022-09-04T11:43:30.462Z,61.63
2022-09-04T11:44:48.568Z,62.42
2022-09-04T11:45:31.240Z,62.02
2022-09-04T11:46:31.218Z,63.22
2022-09-04T11:47:31.238Z,64.01
2022-09-04T11:48:32.319Z,62.42
2022-09-04T11:49:32.578Z,62.99
2022-09-04T11:50:31.809Z,61.10
2022-09-04T11:51:31.718Z,60.13
2022-09-04T11:52:30.988Z,61.99
2022-09-04T11:53:31.149Z,62.23
2022-09-04T11:54:30.979Z,61.25
2022-09-04T11:55:31.169Z,62.05
2022-09-04T11:56:30.958Z,63.55
2022-09-04T11:57:31.120Z,62.05
2022-09-04T11:58:30.909Z,62.65
2022-09-04T11:59:31.238Z,60.73
2022-09-04T12:00:31.028Z,61.83
2022-09-04T12:01:31.251Z,61.25
2022-09-04T12:02:31.042Z,60.66
2022-09-04T12:03:31.085Z,60.66
2022-09-04T12:04:30.938Z,62.15
2022-09-04T12:05:31.180Z,61.96
2022-09-04T12:06:30.208Z,64.34
2022-09-04T12:07:39.371Z,63.35
2022-09-04T12:08:31.020Z,63.38
2022-09-04T12:09:30.797Z,64.15
2022-09-04T12:10:31.051Z,62.85
2022-09-04T12:11:30.869Z,61.06
2022-09-04T12:12:30.940Z,62.55
2022-09-04T12:13:31.248Z,62.68
2022-09-04T12:14:30.128Z,62.29
2022-09-04T12:15:30.780Z,62.95
2022-09-04T12:16:31.022Z,63.72
2022-09-04T12:17:30.830Z,62.13
2022-09-04T12:18:30.982Z,61.63
2022-09-04T12:19:30.852Z,60.24
2022-09-04T12:20:30.829Z,61.93
2022-09-04T12:21:30.840Z,63.82
2022-09-04T12:22:31.929Z,61.20
2022-09-04T12:23:30.830Z,61.60
2022-09-04T12:24:30.709Z,61.40
2022-09-04T12:25:30.778Z,60.70
2022-09-04T12:26:30.631Z,62.26
2022-09-04T12:27:30.879Z,61.00
2022-09-04T12:28:30.000Z,61.20
2022-09-04T12:29:30.790Z,62.29
2022-09-04T12:30:30.728Z,60.90
2022-09-04T12:31:30.747Z,62.49
2022-09-04T12:32:30.629Z,60.17
2022-09-04T12:33:30.769Z,60.97
2022-09-04T12:34:30.649Z,59.68
2022-09-04T12:35:31.978Z,61.07
2022-09-04T12:36:30.689Z,60.68
2022-09-04T12:37:30.918Z,58.88
2022-09-04T12:38:30.631Z,59.98
2022-09-04T12:39:30.515Z,61.27
2022-09-04T12:40:30.718Z,60.68
2022-09-04T12:41:29.860Z,60.57
2022-09-04T12:42:30.728Z,60.57
2022-09-04T12:43:30.468Z,58.69
2022-09-04T12:44:30.869Z,59.68
2022-09-04T12:45:30.508Z,60.27
2022-09-04T12:46:30.599Z,59.70
2022-09-04T12:47:31.501Z,60.60
2022-09-04T12:48:30.598Z,61.63
2022-09-04T12:49:30.461Z,60.73
2022-09-04T12:50:30.609Z,60.46
2022-09-04T12:51:30.540Z,60.86
2022-09-04T12:52:30.524Z,61.46